Time;durP1;ratioP1;P1;durP2;ratioP2;P2;SDS_P1;SDS_P2;PMS_P1;PMS_P2;Temp;Humidity;BMP_temperature;BMP_pressure;BME280_temperature;BME280_humidity;BME280_pressure;Samples;Min_cycle;Max_cycle;Signal;HPM_P1;HPM_P2
2023/07/06 00:01:22;;;;;;;12.13;5.50;;;12.80;99.90;;;;;;5134493;28;20089;-71
2023/07/06 00:03:49;;;;;;;13.40;4.70;;;12.70;99.90;;;;;;5116225;28;20065;-70
2023/07/06 00:06:15;;;;;;;8.38;4.50;;;12.70;99.90;;;;;;5099431;27;20375;-71
2023/07/06 00:08:41;;;;;;;10.20;4.90;;;12.60;99.90;;;;;;5119672;27;20039;-70
2023/07/06 00:11:07;;;;;;;14.80;4.93;;;12.60;99.90;;;;;;5139535;27;20053;-69
2023/07/06 00:13:33;;;;;;;13.18;4.97;;;12.60;99.90;;;;;;5138596;27;20565;-70
2023/07/06 00:16:02;;;;;;;11.80;4.88;;;12.50;99.90;;;;;;5138430;27;20084;-71
2023/07/06 00:18:29;;;;;;;10.57;5.30;;;12.50;99.90;;;;;;5120764;27;20039;-70
2023/07/06 00:20:55;;;;;;;8.90;4.40;;;12.40;99.90;;;;;;5138591;27;20074;-71
2023/07/06 00:23:23;;;;;;;9.47;4.57;;;12.40;99.90;;;;;;5119899;27;20043;-71
2023/07/06 00:25:49;;;;;;;11.00;4.35;;;12.40;99.90;;;;;;5138401;27;20043;-71
2023/07/06 00:28:16;;;;;;;9.27;4.38;;;12.40;99.90;;;;;;5138315;27;20612;-70
2023/07/06 00:33:18;;;;;;;9.38;5.43;;;12.30;99.90;;;;;;5138141;27;20058;-70
2023/07/06 00:35:47;;;;;;;10.68;4.85;;;12.20;99.90;;;;;;5120853;27;20065;-71
2023/07/06 00:38:15;;;;;;;10.30;4.68;;;12.20;99.90;;;;;;5138011;27;20086;-71
2023/07/06 00:40:46;;;;;;;11.27;4.88;;;12.10;99.90;;;;;;5154711;27;20047;-70
2023/07/06 00:43:25;;;;;;;8.90;4.82;;;12.10;99.90;;;;;;5119546;27;20088;-70
2023/07/06 00:46:12;;;;;;;15.55;5.78;;;12.00;99.90;;;;;;5138722;27;20046;-70
2023/07/06 00:48:44;;;;;;;9.95;4.72;;;12.00;99.90;;;;;;5154297;27;20473;-70
2023/07/06 00:51:24;;;;;;;12.50;4.85;;;11.90;99.90;;;;;;5120841;27;20111;-70
2023/07/06 00:53:56;;;;;;;14.40;4.68;;;11.90;99.90;;;;;;5138086;27;20047;-69
2023/07/06 00:56:26;;;;;;;9.50;4.68;;;11.90;99.90;;;;;;5137956;27;20130;-70
2023/07/06 00:58:56;;;;;;;10.43;5.10;;;11.90;99.90;;;;;;5137862;27;20090;-70
2023/07/06 01:01:23;;;;;;;11.90;4.95;;;11.80;99.90;;;;;;5137720;27;20055;-71
2023/07/06 01:03:55;;;;;;;13.02;4.75;;;11.80;99.90;;;;;;5137004;27;20126;-70
2023/07/06 01:06:34;;;;;;;11.65;5.05;;;11.80;99.90;;;;;;5138193;27;20047;-74
2023/07/06 01:09:03;;;;;;;10.05;5.07;;;11.80;99.90;;;;;;5139932;27;20054;-69
2023/07/06 01:11:29;;;;;;;9.35;5.07;;;11.70;99.90;;;;;;5138830;27;20209;-69
2023/07/06 01:13:55;;;;;;;10.25;5.28;;;11.70;99.90;;;;;;5140800;27;20439;-69
2023/07/06 01:16:27;;;;;;;9.88;5.25;;;11.60;99.90;;;;;;5139038;27;20386;-70
2023/07/06 01:19:31;;;;;;;13.07;5.22;;;11.60;99.90;;;;;;5121358;27;20129;-71
2023/07/06 01:22:38;;;;;;;14.93;5.30;;;11.60;99.90;;;;;;5096350;28;20105;-71
2023/07/06 01:25:25;;;;;;;10.75;4.85;;;11.50;99.90;;;;;;5096724;28;20071;-69
2023/07/06 01:28:10;;;;;;;10.98;4.82;;;11.50;99.90;;;;;;5095607;28;20052;-70
2023/07/06 01:30:50;;;;;;;10.23;5.30;;;11.50;99.90;;;;;;5095973;28;20056;-70
2023/07/06 01:33:22;;;;;;;11.30;5.18;;;11.50;99.90;;;;;;5077634;28;20048;-71
2023/07/06 01:36:08;;;;;;;12.65;4.97;;;11.50;99.90;;;;;;5094945;28;20040;-70
2023/07/06 01:38:34;;;;;;;14.25;6.22;;;11.50;99.90;;;;;;5093905;28;20051;-70
2023/07/06 01:40:59;;;;;;;9.73;5.25;;;11.60;99.90;;;;;;5094198;28;20050;-71
2023/07/06 01:43:26;;;;;;;9.30;5.40;;;11.60;99.90;;;;;;5094282;28;20048;-73
2023/07/06 01:45:53;;;;;;;9.40;4.82;;;11.60;99.90;;;;;;5094920;28;20123;-70
2023/07/06 01:48:20;;;;;;;12.75;5.88;;;11.60;99.90;;;;;;5095225;28;20079;-70
2023/07/06 01:51:06;;;;;;;12.27;5.22;;;11.70;99.90;;;;;;5096822;28;20099;-70
2023/07/06 01:53:58;;;;;;;10.02;5.22;;;11.70;99.90;;;;;;5113545;27;20107;-70
2023/07/06 01:56:38;;;;;;;10.98;5.38;;;11.70;99.90;;;;;;5106322;27;20051;-70
2023/07/06 01:59:09;;;;;;;10.23;5.03;;;11.70;99.90;;;;;;5138345;27;20089;-69
2023/07/06 02:01:39;;;;;;;11.77;5.70;;;11.80;99.90;;;;;;5152799;27;20559;-70
2023/07/06 02:04:06;;;;;;;10.85;5.00;;;11.80;99.90;;;;;;5152881;27;20491;-71
2023/07/06 02:06:35;;;;;;;10.00;5.35;;;11.80;99.90;;;;;;5136312;27;20043;-71
2023/07/06 02:09:02;;;;;;;10.52;5.25;;;11.80;99.90;;;;;;5136850;27;20131;-70
2023/07/06 02:11:28;;;;;;;9.35;4.80;;;11.80;99.90;;;;;;5136362;27;20047;-70
2023/07/06 02:13:54;;;;;;;11.33;5.40;;;11.80;99.90;;;;;;5100654;27;20080;-70
2023/07/06 02:16:20;;;;;;;9.43;4.93;;;11.90;99.90;;;;;;5117981;27;20131;-70
2023/07/06 02:18:46;;;;;;;13.70;5.70;;;11.90;99.90;;;;;;5117904;27;20048;-71
2023/07/06 02:21:11;;;;;;;14.85;5.97;;;11.90;99.90;;;;;;5101058;27;20043;-70
2023/07/06 02:23:37;;;;;;;10.30;5.28;;;11.90;99.90;;;;;;5136099;27;20049;-70
2023/07/06 02:26:04;;;;;;;13.50;5.90;;;11.90;99.90;;;;;;5117839;27;20086;-70
2023/07/06 02:28:29;;;;;;;10.75;5.35;;;11.90;99.90;;;;;;5117550;27;20112;-71
2023/07/06 02:30:57;;;;;;;12.45;6.15;;;11.90;99.90;;;;;;5116968;27;20039;-71
2023/07/06 02:33:25;;;;;;;9.32;5.30;;;12.00;99.90;;;;;;5117863;27;20050;-70
2023/07/06 02:35:51;;;;;;;14.45;5.45;;;11.90;99.90;;;;;;5135901;27;20047;-70
2023/07/06 02:38:19;;;;;;;12.38;5.63;;;12.00;99.90;;;;;;5135784;27;20088;-70
2023/07/06 02:40:46;;;;;;;14.38;6.10;;;12.00;99.90;;;;;;5117307;27;20107;-70
2023/07/06 02:43:12;;;;;;;14.13;5.95;;;12.00;99.90;;;;;;5135555;27;20043;-71
2023/07/06 02:45:38;;;;;;;15.02;5.47;;;12.00;99.90;;;;;;5135830;27;20066;-69
2023/07/06 02:48:04;;;;;;;13.98;5.82;;;12.00;99.90;;;;;;5135487;27;20086;-71
2023/07/06 02:50:31;;;;;;;11.93;5.93;;;12.00;99.90;;;;;;5118001;27;20131;-70
2023/07/06 02:52:57;;;;;;;9.88;5.18;;;12.00;99.90;;;;;;5135345;27;20054;-69
2023/07/06 02:55:23;;;;;;;12.02;5.80;;;12.00;99.90;;;;;;5135630;27;20134;-71
2023/07/06 02:57:49;;;;;;;12.93;5.70;;;12.10;99.90;;;;;;5117476;27;20387;-71
2023/07/06 03:00:17;;;;;;;14.88;6.13;;;12.10;99.90;;;;;;5135429;27;20047;-70
2023/07/06 03:02:44;;;;;;;14.55;5.90;;;12.10;99.90;;;;;;5135000;27;20523;-69
2023/07/06 03:05:11;;;;;;;;;;;12.10;99.90;;;;;;5135755;27;20077;-70
2023/07/06 03:07:37;;;;;;;13.18;5.50;;;12.10;99.90;;;;;;5117354;27;19979;-71
2023/07/06 03:10:05;;;;;;;11.95;5.90;;;12.20;99.90;;;;;;5117450;27;20043;-71
2023/07/06 03:12:36;;;;;;;14.38;5.95;;;12.10;99.90;;;;;;5135067;27;20058;-71
2023/07/06 03:15:07;;;;;;;12.70;6.00;;;12.20;99.90;;;;;;5135673;27;20047;-71
2023/07/06 03:17:33;;;;;;;14.05;5.22;;;12.20;99.90;;;;;;5116810;27;20043;-71
2023/07/06 03:19:59;;;;;;;13.98;5.68;;;12.20;99.90;;;;;;5134931;27;20042;-71
2023/07/06 03:22:24;;;;;;;16.35;5.20;;;12.20;99.90;;;;;;5116481;27;20061;-71
2023/07/06 03:24:50;;;;;;;14.10;6.07;;;12.20;99.90;;;;;;5134780;27;20046;-71
2023/07/06 03:27:16;;;;;;;14.45;5.47;;;12.20;99.90;;;;;;5116475;27;20409;-71
2023/07/06 03:29:42;;;;;;;13.50;5.60;;;12.20;99.90;;;;;;5116640;27;20144;-71
2023/07/06 03:32:08;;;;;;;11.50;5.25;;;12.10;99.90;;;;;;5116700;27;20047;-71
2023/07/06 03:34:34;;;;;;;15.05;5.65;;;12.20;99.90;;;;;;5134858;27;20039;-70
2023/07/06 03:37:04;;;;;;;9.48;5.65;;;12.20;99.90;;;;;;5135269;27;20137;-71
2023/07/06 03:39:30;;;;;;;14.40;5.43;;;12.20;99.90;;;;;;5135419;27;20439;-71
2023/07/06 03:41:57;;;;;;;12.93;5.55;;;12.20;99.90;;;;;;5134634;27;20047;-71
2023/07/06 03:44:24;;;;;;;11.20;5.47;;;12.20;99.90;;;;;;5117374;27;20375;-71
2023/07/06 03:46:49;;;;;;;12.18;5.28;;;12.30;99.90;;;;;;5134704;27;20054;-70
2023/07/06 03:49:15;;;;;;;16.13;5.60;;;12.30;99.90;;;;;;5134579;27;20126;-71
2023/07/06 03:51:45;;;;;;;12.68;5.18;;;12.30;99.90;;;;;;5134561;27;20100;-74
2023/07/06 03:54:12;;;;;;;12.25;5.80;;;12.30;99.90;;;;;;5134494;27;20051;-70
2023/07/06 03:56:38;;;;;;;15.52;5.35;;;12.40;99.90;;;;;;5116211;27;20108;-71
2023/07/06 03:59:05;;;;;;;13.98;5.65;;;12.40;99.90;;;;;;5100110;27;20047;-71
2023/07/06 04:01:31;;;;;;;18.77;6.03;;;12.40;99.90;;;;;;5134425;27;20043;-70
2023/07/06 04:03:57;;;;;;;15.43;6.05;;;12.40;99.90;;;;;;5116809;28;20083;-71
2023/07/06 04:06:27;;;;;;;19.77;6.20;;;12.50;99.90;;;;;;5134412;28;20047;-70
2023/07/06 04:08:56;;;;;;;13.70;6.13;;;12.50;99.90;;;;;;5115993;28;20047;-71
2023/07/06 04:11:22;;;;;;;15.65;6.05;;;12.60;99.90;;;;;;5134353;28;20047;-71
2023/07/06 04:13:49;;;;;;;13.27;5.28;;;12.70;99.90;;;;;;5134363;28;20046;-71
2023/07/06 04:16:16;;;;;;;12.55;5.88;;;12.70;99.90;;;;;;5116185;28;20499;-71
2023/07/06 04:18:44;;;;;;;16.75;5.97;;;12.70;99.90;;;;;;5134629;28;20059;-70
2023/07/06 04:21:18;;;;;;;18.15;6.03;;;12.80;99.90;;;;;;5116109;28;20055;-72
2023/07/06 04:23:47;;;;;;;11.77;5.88;;;12.80;99.90;;;;;;5134866;28;20043;-71
2023/07/06 04:26:14;;;;;;;13.43;6.28;;;12.70;99.90;;;;;;5133912;28;20525;-71
2023/07/06 04:28:42;;;;;;;;;;;12.70;99.90;;;;;;5131619;27;20108;-70
2023/07/06 04:31:10;;;;;;;13.70;5.97;;;12.70;99.90;;;;;;5134067;28;20316;-71
2023/07/06 04:33:36;;;;;;;13.93;5.95;;;12.60;99.90;;;;;;5115962;28;20051;-71
2023/07/06 04:36:03;;;;;;;14.57;6.57;;;12.60;99.90;;;;;;5133670;28;20433;-71
2023/07/06 04:38:30;;;;;;;14.80;6.60;;;12.60;99.90;;;;;;5115805;28;20458;-71
2023/07/06 04:40:56;;;;;;;14.63;6.57;;;12.60;99.90;;;;;;5099078;28;20047;-70
2023/07/06 04:43:24;;;;;;;13.55;6.45;;;12.50;99.90;;;;;;5116680;28;20058;-71
2023/07/06 04:45:49;;;;;;;19.60;6.70;;;12.60;99.90;;;;;;5133886;28;20043;-71
2023/07/06 04:48:16;;;;;;;15.27;7.03;;;12.60;99.90;;;;;;5116551;28;20058;-70
2023/07/06 04:50:43;;;;;;;17.23;7.43;;;12.70;99.90;;;;;;5134083;28;20114;-71
2023/07/06 04:53:09;;;;;;;16.13;6.25;;;12.80;99.90;;;;;;5134684;27;20051;-70
2023/07/06 04:55:36;;;;;;;12.73;6.47;;;13.00;99.90;;;;;;5138147;27;20043;-70
2023/07/06 04:58:05;;;;;;;14.27;6.55;;;13.10;99.90;;;;;;5137727;27;20044;-71
2023/07/06 05:00:33;;;;;;;18.35;7.68;;;13.20;99.90;;;;;;5137811;27;20072;-70
2023/07/06 05:03:06;;;;;;;12.38;6.18;;;13.20;99.90;;;;;;5137531;27;20051;-70
2023/07/06 05:05:40;;;;;;;16.27;7.15;;;13.20;99.90;;;;;;5137650;27;20135;-70
2023/07/06 05:08:08;;;;;;;20.33;7.10;;;13.30;99.90;;;;;;5137400;27;20055;-71
2023/07/06 05:10:34;;;;;;;16.23;7.05;;;13.30;99.90;;;;;;5119433;27;20045;-71
2023/07/06 05:13:01;;;;;;;18.55;7.25;;;13.30;99.90;;;;;;5137416;27;20125;-70
2023/07/06 05:15:27;;;;;;;;;;;13.30;99.90;;;;;;5119794;27;20391;-71
2023/07/06 05:17:54;;;;;;;15.82;6.68;;;13.30;99.90;;;;;;5118996;27;20029;-71
2023/07/06 05:20:20;;;;;;;14.02;7.45;;;13.30;99.90;;;;;;5137646;27;20530;-71
2023/07/06 05:22:48;;;;;;;15.10;7.18;;;13.40;99.90;;;;;;5137356;27;20087;-70
2023/07/06 05:25:18;;;;;;;16.52;7.93;;;13.40;99.90;;;;;;5119302;27;20047;-71
2023/07/06 05:27:45;;;;;;;16.10;7.05;;;13.50;99.90;;;;;;5136874;27;20479;-70
2023/07/06 05:30:11;;;;;;;22.42;8.20;;;13.60;99.90;;;;;;5137048;27;20482;-70
2023/07/06 05:32:37;;;;;;;17.23;7.80;;;13.70;99.90;;;;;;5137182;27;20122;-70
2023/07/06 05:35:03;;;;;;;16.05;6.78;;;13.70;99.90;;;;;;5119582;27;20551;-70
2023/07/06 05:37:29;;;;;;;16.23;7.30;;;13.80;99.90;;;;;;5136918;27;20051;-71
2023/07/06 05:39:55;;;;;;;15.20;6.95;;;13.90;99.90;;;;;;5118586;27;20126;-73
2023/07/06 05:42:21;;;;;;;17.88;6.65;;;14.00;99.90;;;;;;5137454;27;20535;-73
2023/07/06 05:44:46;;;;;;;13.60;6.47;;;14.10;99.90;;;;;;5118770;27;20051;-71
2023/07/06 05:47:13;;;;;;;17.30;6.95;;;14.20;99.90;;;;;;5152880;27;20043;-72
2023/07/06 05:49:38;;;;;;;18.75;7.10;;;14.20;99.90;;;;;;5118269;27;20047;-70
2023/07/06 05:52:05;;;;;;;19.23;6.78;;;14.30;99.90;;;;;;5118404;27;20572;-71
2023/07/06 05:54:31;;;;;;;16.63;6.57;;;14.40;99.90;;;;;;5136637;27;20039;-71
2023/07/06 05:56:57;;;;;;;15.30;6.25;;;14.50;99.90;;;;;;5136569;27;20447;-74
2023/07/06 05:59:24;;;;;;;16.58;6.30;;;14.50;99.90;;;;;;5136544;27;20047;-71
2023/07/06 06:01:50;;;;;;;;;;;14.60;99.90;;;;;;5118643;27;20410;-71
2023/07/06 06:04:16;;;;;;;15.55;6.57;;;14.60;99.90;;;;;;5136155;27;19923;-70
2023/07/06 06:06:47;;;;;;;12.85;6.85;;;14.70;99.90;;;;;;5117951;27;20491;-71
2023/07/06 06:09:14;;;;;;;19.40;6.60;;;14.70;99.90;;;;;;5119036;27;20121;-70
2023/07/06 06:11:40;;;;;;;17.48;7.30;;;14.80;99.90;;;;;;5102057;27;20051;-71
2023/07/06 06:14:06;;;;;;;12.40;6.18;;;14.90;99.90;;;;;;5142310;27;20372;-70
2023/07/06 06:16:32;;;;;;;15.85;6.53;;;15.00;99.90;;;;;;5107233;27;20046;-71
2023/07/06 06:19:01;;;;;;;18.23;7.18;;;15.10;99.90;;;;;;5142902;27;20055;-72
2023/07/06 06:21:29;;;;;;;22.60;6.63;;;15.20;99.90;;;;;;5138059;27;20165;-70
2023/07/06 06:23:57;;;;;;;14.30;6.10;;;15.40;99.90;;;;;;5118562;27;20051;-71
2023/07/06 06:26:25;;;;;;;16.23;6.53;;;15.50;99.90;;;;;;5135996;27;20046;-71
2023/07/06 06:28:51;;;;;;;16.20;6.60;;;15.50;99.90;;;;;;5135885;27;20050;-71
2023/07/06 06:31:18;;;;;;;19.25;6.32;;;15.50;99.90;;;;;;5117931;27;20495;-72
2023/07/06 06:33:46;;;;;;;21.10;6.63;;;15.50;99.90;;;;;;5118792;27;20414;-73
2023/07/06 06:36:13;;;;;;;15.80;5.78;;;15.50;99.90;;;;;;5118514;27;20050;-70
2023/07/06 06:38:39;;;;;;;16.48;6.45;;;15.50;99.90;;;;;;5125309;27;20115;-71
2023/07/06 06:41:08;;;;;;;17.70;6.43;;;15.50;99.90;;;;;;5143485;27;20047;-71
2023/07/06 06:43:38;;;;;;;15.02;6.68;;;15.50;99.90;;;;;;5127638;27;20401;-70
2023/07/06 06:46:09;;;;;;;13.73;6.28;;;15.60;99.90;;;;;;5137043;27;20039;-71
2023/07/06 06:48:35;;;;;;;14.30;6.13;;;15.70;99.90;;;;;;5117792;27;20051;-71
2023/07/06 06:51:04;;;;;;;14.35;6.60;;;15.80;99.90;;;;;;5135677;27;20039;-71
2023/07/06 06:53:30;;;;;;;14.93;6.45;;;15.80;99.90;;;;;;5117194;27;20043;-70
2023/07/06 06:55:57;;;;;;;14.20;6.33;;;15.90;99.90;;;;;;5118188;27;20039;-70
2023/07/06 06:58:24;;;;;;;15.88;6.20;;;16.00;99.90;;;;;;5117882;27;20341;-71
2023/07/06 07:00:59;;;;;;;14.32;6.80;;;16.10;99.90;;;;;;5135764;27;20047;-72
2023/07/06 07:03:28;;;;;;;15.48;6.78;;;16.20;99.90;;;;;;5116889;27;20050;-71
2023/07/06 07:06:01;;;;;;;16.75;6.85;;;16.30;99.90;;;;;;5152114;27;20047;-71
2023/07/06 07:08:27;;;;;;;15.13;5.78;;;16.40;99.90;;;;;;5135209;27;20047;-68
2023/07/06 07:10:55;;;;;;;15.95;6.38;;;16.60;99.90;;;;;;5133973;27;20451;-71
2023/07/06 07:13:21;;;;;;;12.90;6.78;;;16.80;99.90;;;;;;5134740;27;20479;-72
2023/07/06 07:15:47;;;;;;;13.90;6.38;;;17.00;99.90;;;;;;5117600;27;20045;-71
2023/07/06 07:18:14;;;;;;;11.23;4.63;;;17.40;99.90;;;;;;5116597;27;20486;-71
2023/07/06 07:20:40;;;;;;;16.65;6.90;;;17.60;99.90;;;;;;5116918;27;20111;-70
2023/07/06 07:23:05;;;;;;;16.92;6.68;;;17.80;99.90;;;;;;5151058;27;20497;-72
2023/07/06 07:25:31;;;;;;;15.57;6.83;;;17.80;99.90;;;;;;5116722;27;20039;-70
2023/07/06 07:27:57;;;;;;;17.50;6.70;;;18.00;99.90;;;;;;5134769;27;20410;-71
2023/07/06 07:30:23;;;;;;;20.13;7.37;;;18.10;99.90;;;;;;5134902;27;20130;-71
2023/07/06 07:32:50;;;;;;;14.18;7.72;;;18.10;99.90;;;;;;5135198;27;20405;-71
2023/07/06 07:35:16;;;;;;;19.58;7.97;;;17.90;99.90;;;;;;5134722;27;20079;-73
2023/07/06 07:37:47;;;;;;;17.83;8.05;;;17.70;99.90;;;;;;5135366;27;20171;-72
2023/07/06 07:40:17;;;;;;;17.35;8.13;;;17.70;99.90;;;;;;5135215;27;20047;-70
2023/07/06 07:42:46;;;;;;;16.77;7.63;;;17.70;99.90;;;;;;5134569;27;20058;-72
2023/07/06 07:45:13;;;;;;;17.13;9.10;;;17.60;99.90;;;;;;5134422;27;20548;-71
2023/07/06 07:47:39;;;;;;;16.27;8.43;;;17.60;99.90;;;;;;5100178;27;20050;-69
2023/07/06 07:50:06;;;;;;;15.20;7.78;;;17.60;99.90;;;;;;5135345;27;20043;-69
2023/07/06 07:52:32;;;;;;;16.25;9.18;;;17.70;99.90;;;;;;5116592;27;20039;-70
2023/07/06 07:54:58;;;;;;;15.68;8.57;;;17.90;99.90;;;;;;5135165;27;20107;-70
2023/07/06 07:57:23;;;;;;;17.27;7.70;;;18.00;99.90;;;;;;5135844;27;20383;-73
2023/07/06 07:59:49;;;;;;;16.40;8.57;;;18.00;99.90;;;;;;5134928;27;20058;-71
2023/07/06 08:02:15;;;;;;;15.88;8.10;;;18.10;99.90;;;;;;5116807;28;20047;-71
2023/07/06 08:04:41;;;;;;;17.03;9.13;;;18.20;99.90;;;;;;5135208;28;20046;-72
2023/07/06 08:07:07;;;;;;;15.57;8.43;;;18.20;99.90;;;;;;5135199;28;20436;-71
2023/07/06 08:09:32;;;;;;;16.13;8.40;;;18.30;99.90;;;;;;5100391;28;20043;-70
2023/07/06 08:11:58;;;;;;;19.33;7.80;;;18.30;99.90;;;;;;5134919;28;20046;-72
2023/07/06 08:14:34;;;;;;;18.17;7.80;;;18.20;99.90;;;;;;5134982;28;20043;-71
2023/07/06 08:17:00;;;;;;;16.92;7.22;;;18.10;99.90;;;;;;5116527;28;20051;-70
2023/07/06 08:19:26;;;;;;;14.20;7.00;;;18.10;99.90;;;;;;5133194;27;20035;-72
2023/07/06 08:21:52;;;;;;;15.43;6.57;;;18.00;99.90;;;;;;5134137;28;20086;-71
2023/07/06 08:24:18;;;;;;;16.03;6.33;;;18.10;99.90;;;;;;5134115;28;20083;-71
2023/07/06 08:26:43;;;;;;;12.75;5.10;;;18.20;99.90;;;;;;5081948;28;20094;-70
2023/07/06 08:29:09;;;;;;;11.25;5.93;;;18.30;99.90;;;;;;5137126;27;20054;-71
2023/07/06 08:31:35;;;;;;;15.67;5.87;;;18.40;99.90;;;;;;5138484;27;20047;-71
2023/07/06 08:34:01;;;;;;;13.83;5.60;;;18.60;99.90;;;;;;5138247;27;20043;-72
2023/07/06 08:36:27;;;;;;;14.00;6.00;;;18.70;99.90;;;;;;5138725;27;20047;-71
2023/07/06 08:38:54;;;;;;;13.18;6.22;;;18.70;99.90;;;;;;5138195;27;20395;-71
2023/07/06 08:41:31;;;;;;;13.18;5.85;;;18.70;99.90;;;;;;5119919;27;20058;-72
2023/07/06 08:43:59;;;;;;;13.73;5.35;;;19.00;99.90;;;;;;5138669;27;20083;-71
2023/07/06 08:46:30;;;;;;;15.52;5.10;;;19.20;99.90;;;;;;5119962;27;20054;-70
2023/07/06 08:48:56;;;;;;;13.80;4.97;;;19.40;99.90;;;;;;5138556;27;20035;-71
2023/07/06 08:51:27;;;;;;;12.40;4.40;;;19.50;99.90;;;;;;5138449;27;20051;-72
2023/07/06 08:54:00;;;;;;;8.18;3.65;;;19.70;99.90;;;;;;5120224;27;20280;-71
2023/07/06 08:56:28;;;;;;;10.10;4.20;;;20.00;99.90;;;;;;5137862;27;20473;-70
2023/07/06 08:58:57;;;;;;;12.45;3.60;;;20.30;99.90;;;;;;5137721;27;20126;-71
2023/07/06 09:01:24;;;;;;;11.68;4.15;;;20.50;99.90;;;;;;5120449;27;20135;-72
2023/07/06 09:03:56;;;;;;;8.63;3.38;;;20.70;99.90;;;;;;5119529;27;20054;-70
2023/07/06 09:06:26;;;;;;;9.90;3.20;;;20.90;99.90;;;;;;5137729;27;20043;-71
2023/07/06 09:09:01;;;;;;;8.20;1.75;;;20.90;99.90;;;;;;5119380;27;20057;-72
2023/07/06 09:11:33;;;;;;;6.70;2.00;;;20.90;99.90;;;;;;5137522;27;20049;-73
2023/07/06 09:14:05;;;;;;;7.18;3.00;;;20.90;99.90;;;;;;5138066;27;20046;-73
2023/07/06 09:16:35;;;;;;;9.23;3.60;;;20.80;99.90;;;;;;5136993;27;20050;-73
2023/07/06 09:19:08;;;;;;;10.15;3.95;;;20.80;99.90;;;;;;5137388;27;20043;-74
2023/07/06 09:21:34;;;;;;;7.95;3.05;;;20.90;99.90;;;;;;5119657;27;20050;-72
2023/07/06 09:24:01;;;;;;;8.10;2.37;;;21.00;99.90;;;;;;5118991;27;20043;-71
2023/07/06 09:26:34;;;;;;;6.05;2.00;;;21.10;99.90;;;;;;5137621;27;20327;-72
2023/07/06 09:29:25;;;;;;;5.93;2.13;;;21.20;99.90;;;;;;5119390;27;20051;-71
2023/07/06 09:32:08;;;;;;;7.40;2.45;;;21.40;99.90;;;;;;5137073;27;20185;-68
2023/07/06 09:34:35;;;;;;;7.35;2.20;;;21.60;99.90;;;;;;5118684;27;20491;-73
2023/07/06 09:37:02;;;;;;;5.55;1.50;;;21.60;99.90;;;;;;5136902;27;20505;-71
2023/07/06 09:39:28;;;;;;;6.25;1.58;;;21.80;99.90;;;;;;5117489;28;20035;-71
2023/07/06 09:41:55;;;;;;;5.30;2.00;;;21.70;99.90;;;;;;5136659;27;20062;-73
2023/07/06 09:44:30;;;;;;;9.80;2.80;;;21.70;99.90;;;;;;5136862;27;20447;-70
2023/07/06 09:46:58;;;;;;;7.07;1.90;;;21.60;99.90;;;;;;5137704;27;20485;-71
2023/07/06 09:49:30;;;;;;;8.55;2.25;;;21.40;99.90;;;;;;5118946;27;20043;-71
2023/07/06 09:52:02;;;;;;;8.48;2.50;;;21.30;99.90;;;;;;5137558;27;20100;-72
2023/07/06 09:54:35;;;;;;;6.45;2.05;;;21.10;99.90;;;;;;5137236;27;20089;-70
2023/07/06 09:57:10;;;;;;;10.32;2.47;;;21.20;99.90;;;;;;5119038;27;20119;-70
2023/07/06 09:59:48;;;;;;;6.75;2.15;;;21.10;99.90;;;;;;5136603;27;20533;-71
2023/07/06 10:02:41;;;;;;;7.68;1.90;;;21.10;99.90;;;;;;5120095;27;20043;-72
2023/07/06 10:05:17;;;;;;;12.65;2.75;;;21.10;99.90;;;;;;5136693;27;20050;-71
2023/07/06 10:07:53;;;;;;;7.63;2.07;;;21.00;99.90;;;;;;5136729;27;20043;-70
2023/07/06 10:10:23;;;;;;;;;;;21.20;99.90;;;;;;5119595;27;20047;-71
2023/07/06 10:13:10;;;;;;;10.60;2.13;;;21.40;99.90;;;;;;5118354;27;19958;-70
2023/07/06 10:15:51;;;;;;;8.20;1.90;;;21.40;99.90;;;;;;5136271;27;20047;-72
2023/07/06 10:18:54;;;;;;;8.80;1.95;;;21.20;99.90;;;;;;5118100;27;20043;-71
2023/07/06 10:21:36;;;;;;;8.15;2.25;;;21.30;99.90;;;;;;5053479;28;20087;-72
2023/07/06 10:24:36;;;;;;;6.53;1.98;;;21.10;99.90;;;;;;5129126;27;20059;-70
2023/07/06 10:27:04;;;;;;;7.72;1.17;;;21.10;99.90;;;;;;5136361;27;20130;-70
2023/07/06 10:29:42;;;;;;;2.58;0.60;;;21.10;99.90;;;;;;5151734;27;20067;-72
2023/07/06 10:32:16;;;;;;;5.10;0.90;;;20.90;99.90;;;;;;5135944;27;20054;-71
2023/07/06 10:34:55;;;;;;;5.45;0.98;;;20.90;99.90;;;;;;5135624;27;20039;-71
2023/07/06 10:37:24;;;;;;;4.05;0.90;;;20.90;99.90;;;;;;5136387;27;20047;-71
2023/07/06 10:40:08;;;;;;;5.13;1.45;;;21.00;99.90;;;;;;5151987;27;20047;-71
2023/07/06 10:42:33;;;;;;;8.10;1.10;;;21.00;99.90;;;;;;5117857;27;20047;-72
2023/07/06 10:45:03;;;;;;;9.07;1.30;;;21.10;99.90;;;;;;5135642;27;20062;-71
2023/07/06 10:47:28;;;;;;;9.73;1.40;;;21.20;99.90;;;;;;5117763;27;20053;-72
2023/07/06 10:50:19;;;;;;;6.13;1.30;;;21.40;99.90;;;;;;5136330;27;20158;-71
2023/07/06 10:53:01;;;;;;;5.55;1.27;;;21.50;99.90;;;;;;5116616;27;20495;-72
2023/07/06 10:55:34;;;;;;;13.00;1.40;;;21.30;99.90;;;;;;5135785;27;20467;-71
2023/07/06 10:58:28;;;;;;;8.85;1.50;;;21.60;99.90;;;;;;5117874;27;20471;-72
2023/07/06 11:01:04;;;;;;;6.72;1.40;;;21.80;99.90;;;;;;5117138;27;20051;-72
2023/07/06 11:03:31;;;;;;;5.73;1.77;;;22.00;99.90;;;;;;5135467;27;20097;-71
2023/07/06 11:06:05;;;;;;;5.93;1.70;;;21.90;99.90;;;;;;5117024;27;20054;-71
2023/07/06 11:09:07;;;;;;;7.35;1.52;;;22.00;99.90;;;;;;5134960;27;20122;-71
2023/07/06 11:11:43;;;;;;;5.80;1.50;;;21.70;99.90;;;;;;5121194;27;20487;-70
2023/07/06 11:14:39;;;;;;;5.73;1.50;;;21.70;99.90;;;;;;5117357;27;20050;-73
2023/07/06 11:17:17;;;;;;;5.15;1.65;;;21.60;99.90;;;;;;5118127;27;20367;-72
2023/07/06 11:20:24;;;;;;;7.78;1.77;;;21.50;99.90;;;;;;5135028;27;20091;-72
2023/07/06 11:22:59;;;;;;;7.43;1.23;;;21.60;99.90;;;;;;5139641;27;20107;-71
2023/07/06 11:25:28;;;;;;;7.43;1.27;;;21.60;99.90;;;;;;5116611;27;20047;-71
2023/07/06 11:27:59;;;;;;;6.47;1.70;;;21.70;99.90;;;;;;5116916;27;20083;-72
2023/07/06 11:31:02;;;;;;;8.05;1.63;;;21.80;99.90;;;;;;5134842;27;20047;-71
2023/07/06 11:34:03;;;;;;;6.72;1.50;;;21.90;99.90;;;;;;5099451;27;20051;-71
2023/07/06 11:37:01;;;;;;;8.88;1.23;;;22.00;99.90;;;;;;5116636;27;20078;-72
2023/07/06 11:39:55;;;;;;;5.85;1.25;;;22.20;99.90;;;;;;5072507;27;20058;-73
2023/07/06 11:42:37;;;;;;;4.68;1.30;;;22.40;99.90;;;;;;5135592;27;20042;-72
2023/07/06 11:45:20;;;;;;;6.05;1.40;;;22.50;99.90;;;;;;5117259;27;20125;-72
2023/07/06 11:48:04;;;;;;;6.85;1.70;;;22.60;99.90;;;;;;5151439;27;20413;-72
2023/07/06 11:50:37;;;;;;;8.57;1.45;;;22.60;99.90;;;;;;5117329;27;20051;-72
2023/07/06 11:53:17;;;;;;;5.93;1.20;;;22.50;99.90;;;;;;5116638;28;20043;-72
2023/07/06 11:55:54;;;;;;;5.95;1.38;;;22.50;99.90;;;;;;5116570;28;20367;-70
2023/07/06 12:04:20;;;;;;;7.50;1.17;;;22.80;99.90;;;;;;5098120;28;20054;-72
2023/07/06 12:06:48;;;;;;;7.50;1.30;;;22.90;99.90;;;;;;5116078;28;20112;-70
2023/07/06 12:09:19;;;;;;;6.38;1.40;;;23.10;99.90;;;;;;5135027;28;20043;-71
2023/07/06 12:12:01;;;;;;;6.93;1.80;;;23.30;99.90;;;;;;5116526;28;20047;-69
2023/07/06 12:14:28;;;;;;;7.78;1.92;;;23.20;99.90;;;;;;5134707;28;20364;-71
2023/07/06 12:16:54;;;;;;;;;;;23.00;99.90;;;;;;5116844;28;20114;-71
2023/07/06 12:19:21;;;;;;;6.47;1.60;;;;;;;;;;5116344;28;20380;-73
2023/07/06 12:21:54;;;;;;;5.53;1.50;;;;;;;;;;5134250;28;20130;-72
2023/07/06 12:24:23;;;;;;;8.75;1.90;;;;;;;;;;5134859;28;20091;-69
2023/07/06 12:26:50;;;;;;;7.53;1.83;;;;;;;;;;5116094;28;20047;-73
2023/07/06 12:29:17;;;;;;;10.25;2.10;;;;;;;;;;5115775;28;20105;-74
2023/07/06 12:31:44;;;;;;;9.85;2.25;;;;;;;;;;5133820;27;20134;-72
2023/07/06 12:34:16;;;;;;;7.68;2.67;;;;;;;;;;5134603;28;20051;-71
2023/07/06 12:36:43;;;;;;;8.85;2.72;;;;;;;;;;5116593;28;20538;-70
2023/07/06 12:39:13;;;;;;;11.52;3.45;;;;;;;;;;5133731;28;20502;-72
2023/07/06 12:41:39;;;;;;;10.55;3.47;;;;;;;;;;5115760;28;20093;-72
2023/07/06 12:44:17;;;;;;;10.07;3.20;;;;;;;;;;5134055;28;20072;-73
2023/07/06 12:46:47;;;;;;;9.30;3.80;;;;;;;;;;5134572;28;20054;-72
2023/07/06 12:49:20;;;;;;;10.18;3.20;;;;;;;;;;5116646;28;20047;-72
2023/07/06 12:51:47;;;;;;;10.82;3.13;;;;;;;;;;5134018;28;20090;-75
2023/07/06 12:54:13;;;;;;;10.55;2.90;;;;;;;;;;5134026;28;20043;-72
2023/07/06 12:56:40;;;;;;;4.78;2.40;;;;;;;;;;5133824;28;20055;-73
2023/07/06 12:59:06;;;;;;;10.40;2.40;;;;;;;;;;5134015;28;20043;-73
2023/07/06 13:01:45;;;;;;;8.57;2.20;;;;;;;;;;5134482;28;20051;-73
2023/07/06 13:04:12;;;;;;;5.30;2.22;;;;;;;;;;5116376;28;20047;-73
2023/07/06 13:06:54;;;;;;;8.32;2.50;;;;;;;;;;5099084;28;20043;-72
2023/07/06 13:09:22;;;;;;;9.13;2.40;;;;;;;;;;5115997;28;20043;-72
2023/07/06 13:11:52;;;;;;;7.57;2.65;;;;;;;;;;5134323;28;20082;-74
2023/07/06 13:14:21;;;;;;;7.82;2.30;;;;;;;;;;5116572;27;20043;-72
2023/07/06 13:16:52;;;;;;;9.43;2.42;;;;;;;;;;5120249;27;20059;-74